createdAt,value
2023-04-07T00:02:35.413Z,41.30
2023-04-07T00:06:34.361Z,39.80
2023-04-07T00:10:32.398Z,37.20
2023-04-07T00:14:30.360Z,39.20
2023-04-07T00:18:28.503Z,38.30
2023-04-07T00:22:26.398Z,39.60
2023-04-07T00:26:24.521Z,39.70
2023-04-07T00:30:23.504Z,38.60
2023-04-07T00:34:21.372Z,38.20
2023-04-07T00:38:19.366Z,39.30
2023-04-07T00:42:18.342Z,37.60
2023-04-07T00:46:16.314Z,39.40
2023-04-07T00:50:14.530Z,36.50
2023-04-07T00:54:12.302Z,39.70
2023-04-07T00:58:11.400Z,36.20
2023-04-07T01:02:22.527Z,37.50
2023-04-07T01:06:22.308Z,39.70
2023-04-07T01:10:21.301Z,37.50
2023-04-07T01:14:26.290Z,39.00
2023-04-07T01:18:36.295Z,35.50
2023-04-07T01:22:41.352Z,36.50
2023-04-07T01:26:49.271Z,37.00
2023-04-07T01:30:50.265Z,36.90
2023-04-07T01:34:49.255Z,34.70
2023-04-07T01:38:48.270Z,39.20
2023-04-07T01:42:48.362Z,38.80
2023-04-07T01:46:46.330Z,35.30
2023-04-07T01:50:44.313Z,37.70
2023-04-07T01:54:43.371Z,37.60
2023-04-07T01:58:41.297Z,36.60
2023-04-07T02:02:41.512Z,35.30
2023-04-07T02:06:45.222Z,40.80
2023-04-07T02:10:44.252Z,36.80
2023-04-07T02:14:43.270Z,36.80
2023-04-07T02:18:42.220Z,39.00
2023-04-07T02:22:40.193Z,38.90
2023-04-07T02:26:38.181Z,40.00
2023-04-07T02:30:36.202Z,42.30
2023-04-07T02:34:34.272Z,44.10
2023-04-07T02:38:32.250Z,39.90
2023-04-07T02:42:30.233Z,39.80
2023-04-07T02:46:29.317Z,45.50
2023-04-07T02:50:27.206Z,43.10
2023-04-07T02:54:25.184Z,40.60
2023-04-07T02:58:24.273Z,41.60
2023-04-07T03:02:22.529Z,43.20
2023-04-07T03:06:20.142Z,45.20
2023-04-07T03:10:25.194Z,44.10
2023-04-07T03:14:23.269Z,45.20
2023-04-07T03:18:21.100Z,43.90
2023-04-07T03:22:24.162Z,44.40
2023-04-07T03:26:22.223Z,42.20
2023-04-07T03:30:22.151Z,41.00
2023-04-07T03:34:20.132Z,40.50
2023-04-07T03:38:18.210Z,40.40
2023-04-07T03:42:18.064Z,38.20
2023-04-07T03:46:20.169Z,38.50
2023-04-07T03:50:18.064Z,38.70
2023-04-07T03:54:22.070Z,37.30
2023-04-07T03:58:20.054Z,37.30
2023-04-07T04:02:18.304Z,38.20
2023-04-07T04:06:17.052Z,35.00
2023-04-07T04:10:15.114Z,32.50
2023-04-07T04:14:15.173Z,34.30
2023-04-07T04:18:17.250Z,32.10
2023-04-07T04:22:16.024Z,30.10
2023-04-07T04:26:17.098Z,33.20
2023-04-07T04:30:15.084Z,33.30
2023-04-07T04:34:19.100Z,33.80
2023-04-07T04:38:19.134Z,35.80
2023-04-07T04:42:40.054Z,37.10
2023-04-07T04:46:38.056Z,37.00
2023-04-07T04:50:36.019Z,38.10
2023-04-07T04:54:36.028Z,37.10
2023-04-07T04:58:35.103Z,35.70
2023-04-07T05:02:33.095Z,35.00
2023-04-07T05:06:31.022Z,36.70
2023-04-07T05:10:32.050Z,35.40
2023-04-07T05:14:30.968Z,35.70
2023-04-07T05:18:30.962Z,35.90
2023-04-07T05:22:29.210Z,35.10
2023-04-07T05:26:35.025Z,34.60
2023-04-07T05:30:33.092Z,37.00
2023-04-07T05:34:30.939Z,37.50
2023-04-07T05:38:28.948Z,38.30
2023-04-07T05:42:32.968Z,38.40
2023-04-07T05:46:32.075Z,37.50
2023-04-07T05:50:30.051Z,34.20
2023-04-07T05:54:29.926Z,31.40
2023-04-07T05:58:28.988Z,34.00
2023-04-07T06:02:06.725Z,31.80
2023-04-07T06:05:31.441Z,33.40
2023-04-07T06:08:55.570Z,31.40
2023-04-07T06:12:20.646Z,30.00
2023-04-07T06:15:45.892Z,30.40
2023-04-07T06:19:09.876Z,32.50
2023-04-07T06:22:33.861Z,31.60
2023-04-07T06:25:58.046Z,30.80
2023-04-07T06:29:22.124Z,30.60
2023-04-07T06:32:47.023Z,29.70
2023-04-07T06:36:11.109Z,31.30
2023-04-07T06:39:35.098Z,29.50
2023-04-07T06:42:59.071Z,28.90
2023-04-07T06:46:33.242Z,30.70
2023-04-07T06:49:57.209Z,28.90
2023-04-07T06:53:21.059Z,28.50
2023-04-07T06:56:45.301Z,30.30
2023-04-07T07:00:10.220Z,28.20
2023-04-07T07:03:34.404Z,27.90
2023-04-07T07:06:58.324Z,26.60
2023-04-07T07:10:22.860Z,28.00
2023-04-07T07:13:48.149Z,27.00
2023-04-07T07:17:12.054Z,24.90
2023-04-07T07:20:35.907Z,22.70
2023-04-07T07:23:59.779Z,23.40
2023-04-07T07:27:23.693Z,23.90
2023-04-07T07:30:47.573Z,23.60
2023-04-07T07:34:11.398Z,25.90
2023-04-07T07:37:35.988Z,23.10
2023-04-07T07:40:59.715Z,16.70
2023-04-07T07:44:23.912Z,14.50
2023-04-07T07:47:47.876Z,13.30
2023-04-07T07:51:12.127Z,12.00
2023-04-07T07:54:36.055Z,11.70
2023-04-07T07:57:59.954Z,11.20
2023-04-07T08:01:23.911Z,10.80
2023-04-07T08:04:48.106Z,9.00
2023-04-07T08:08:12.133Z,9.40
2023-04-07T08:11:36.154Z,9.60
2023-04-07T08:15:00.127Z,8.50
2023-04-07T08:18:25.409Z,9.20
2023-04-07T08:21:49.184Z,9.70
2023-04-07T08:25:13.167Z,9.40
2023-04-07T08:28:39.566Z,9.40
2023-04-07T08:32:03.587Z,8.70
2023-04-07T08:35:27.493Z,8.70
2023-04-07T08:38:51.473Z,8.70
2023-04-07T08:42:17.761Z,8.40
2023-04-07T08:45:43.506Z,8.00
2023-04-07T08:49:14.050Z,6.50
2023-04-07T08:52:57.898Z,6.70
2023-04-07T08:56:22.056Z,5.50
2023-04-07T08:59:49.129Z,6.00
2023-04-07T09:03:13.265Z,5.40
2023-04-07T09:06:39.781Z,5.20
2023-04-07T09:10:04.702Z,4.90
2023-04-07T09:13:28.577Z,4.70
2023-04-07T09:16:52.539Z,5.00
2023-04-07T09:20:16.466Z,4.60
2023-04-07T09:23:42.267Z,3.80
2023-04-07T09:27:17.531Z,5.10
2023-04-07T09:30:54.274Z,4.30
2023-04-07T09:34:43.285Z,5.20
2023-04-07T09:38:11.361Z,6.10
2023-04-07T09:41:35.282Z,6.30
2023-04-07T09:45:02.852Z,6.40
2023-04-07T09:48:26.949Z,6.20
2023-04-07T09:52:07.811Z,5.60
2023-04-07T09:55:34.043Z,5.20
2023-04-07T09:58:58.813Z,5.20
2023-04-07T10:02:23.848Z,5.20
2023-04-07T10:05:48.612Z,4.40
2023-04-07T10:09:12.997Z,4.70
2023-04-07T10:12:39.308Z,6.40
2023-04-07T10:16:08.609Z,5.40
2023-04-07T10:19:34.710Z,6.80
2023-04-07T10:23:09.512Z,6.70
2023-04-07T10:26:37.020Z,7.40
2023-04-07T10:30:02.402Z,8.90
2023-04-07T10:33:46.644Z,7.90
2023-04-07T10:37:14.327Z,7.30
2023-04-07T10:40:39.197Z,6.30
2023-04-07T10:44:04.267Z,6.30
2023-04-07T10:47:28.369Z,6.00
2023-04-07T10:51:08.542Z,6.40
2023-04-07T10:54:32.500Z,5.90
2023-04-07T10:58:15.237Z,7.30
2023-04-07T11:01:39.092Z,6.80
2023-04-07T11:05:03.886Z,6.10
2023-04-07T11:08:35.061Z,6.80
2023-04-07T11:11:58.938Z,5.50
2023-04-07T11:15:23.508Z,4.80
2023-04-07T11:18:49.026Z,4.80
2023-04-07T11:25:48.895Z,4.60
2023-04-07T11:29:13.640Z,4.60
2023-04-07T11:32:38.537Z,5.40
2023-04-07T11:36:04.041Z,5.50
2023-04-07T11:42:56.691Z,4.70
2023-04-07T11:46:21.740Z,4.80
2023-04-07T11:49:47.440Z,5.20
2023-04-07T11:53:11.839Z,5.00
2023-04-07T11:56:46.757Z,4.80
2023-04-07T12:00:13.564Z,5.50
2023-04-07T12:03:39.138Z,6.10
2023-04-07T12:07:13.097Z,5.30
2023-04-07T12:10:37.019Z,4.50
2023-04-07T12:14:02.219Z,5.80
2023-04-07T12:17:28.313Z,5.10
2023-04-07T12:20:52.633Z,5.90
2023-04-07T12:24:17.108Z,6.40
2023-04-07T12:27:43.661Z,6.50
2023-04-07T12:31:08.268Z,5.60
2023-04-07T12:34:32.555Z,5.80
2023-04-07T12:37:56.892Z,8.80
2023-04-07T12:41:20.783Z,7.00
2023-04-07T12:44:44.604Z,8.60
2023-04-07T12:48:08.599Z,7.30
2023-04-07T12:51:33.594Z,8.20
2023-04-07T12:54:58.686Z,7.80
2023-04-07T12:58:22.694Z,5.90
2023-04-07T13:01:47.817Z,6.30
2023-04-07T13:05:14.132Z,4.90
2023-04-07T13:08:38.113Z,4.40
2023-04-07T13:12:02.298Z,4.90
2023-04-07T13:15:26.385Z,5.00
2023-04-07T13:18:50.215Z,4.60
2023-04-07T13:22:18.276Z,5.60
2023-04-07T13:25:45.596Z,5.00
2023-04-07T13:29:09.387Z,4.60
2023-04-07T13:32:55.337Z,5.90
2023-04-07T13:36:53.415Z,5.20
2023-04-07T13:40:51.357Z,4.80
2023-04-07T13:44:52.388Z,4.40
2023-04-07T13:48:50.330Z,4.50
2023-04-07T13:52:48.366Z,4.20
2023-04-07T13:56:47.302Z,4.50
2023-04-07T14:00:45.326Z,4.20
2023-04-07T14:04:43.425Z,4.20
2023-04-07T14:08:42.327Z,3.50
2023-04-07T14:12:41.405Z,4.00
2023-04-07T14:16:39.381Z,4.50
2023-04-07T14:20:37.311Z,5.20
2023-04-07T14:24:35.296Z,5.50
2023-04-07T14:28:33.268Z,5.00
2023-04-07T14:32:31.425Z,6.10
2023-04-07T14:36:30.253Z,6.30
2023-04-07T14:40:28.322Z,6.60
2023-04-07T14:44:26.465Z,8.10
2023-04-07T14:48:25.256Z,9.10
2023-04-07T14:52:23.339Z,7.60
2023-04-07T14:56:21.274Z,8.40
2023-04-07T15:00:20.248Z,9.00
2023-04-07T15:04:18.345Z,9.30
2023-04-07T15:08:16.246Z,10.20
2023-04-07T15:12:14.268Z,11.30
2023-04-07T15:16:20.389Z,10.60
2023-04-07T15:20:19.233Z,11.70
2023-04-07T15:24:17.250Z,12.40
2023-04-07T15:28:15.261Z,14.20
2023-04-07T15:32:13.265Z,16.20
2023-04-07T15:36:11.278Z,11.40
2023-04-07T15:40:09.240Z,10.00
2023-04-07T15:44:07.252Z,10.40
2023-04-07T15:48:07.273Z,11.00
2023-04-07T15:52:05.207Z,9.80
2023-04-07T15:56:03.185Z,11.60
2023-04-07T16:00:01.181Z,11.70
2023-04-07T16:03:59.370Z,11.50
2023-04-07T16:07:57.240Z,11.30
2023-04-07T16:11:55.223Z,10.00
2023-04-07T16:15:53.191Z,12.00
2023-04-07T16:19:51.163Z,12.20
2023-04-07T16:23:49.443Z,13.10
2023-04-07T16:27:47.290Z,11.60
2023-04-07T16:31:46.182Z,12.00
2023-04-07T16:35:44.144Z,11.70
2023-04-07T16:39:42.195Z,12.10
2023-04-07T16:43:40.165Z,12.40
2023-04-07T16:47:39.301Z,12.80
2023-04-07T16:51:37.081Z,12.80
2023-04-07T16:55:35.235Z,16.20
2023-04-07T16:59:33.119Z,13.40
2023-04-07T17:03:31.323Z,13.10
2023-04-07T17:07:29.083Z,11.00
2023-04-07T17:11:28.127Z,14.70
2023-04-07T17:15:27.172Z,13.10
2023-04-07T17:19:25.146Z,16.00
2023-04-07T17:23:23.024Z,15.60
2023-04-07T17:27:21.200Z,16.80
2023-04-07T17:31:19.077Z,17.60
2023-04-07T17:35:17.268Z,14.50
2023-04-07T17:39:16.159Z,13.90
2023-04-07T17:43:14.052Z,12.90
2023-04-07T17:47:12.024Z,11.20
2023-04-07T17:51:10.098Z,14.20
2023-04-07T17:55:08.031Z,11.90
2023-04-07T17:59:06.074Z,11.10
2023-04-07T18:03:04.206Z,11.10
2023-04-07T18:07:02.028Z,10.80
2023-04-07T18:10:59.997Z,11.80
2023-04-07T18:14:58.073Z,12.90
2023-04-07T18:18:56.053Z,11.00
2023-04-07T18:22:54.044Z,12.50
2023-04-07T18:26:51.993Z,12.20
2023-04-07T18:30:50.020Z,12.30
2023-04-07T18:34:47.999Z,12.90
2023-04-07T18:38:46.054Z,12.30
2023-04-07T18:42:44.038Z,12.10
2023-04-07T18:46:42.090Z,13.60
2023-04-07T18:51:06.964Z,12.10
2023-04-07T18:55:05.062Z,12.60
2023-04-07T18:59:02.943Z,11.80
2023-04-07T19:03:01.246Z,11.20
2023-04-07T19:06:59.997Z,11.50
2023-04-07T19:10:57.969Z,13.20
2023-04-07T19:14:55.974Z,13.90
2023-04-07T19:18:53.985Z,14.50
2023-04-07T19:22:53.011Z,15.00
2023-04-07T19:26:50.941Z,11.70
2023-04-07T19:30:48.931Z,13.40
2023-04-07T19:34:46.969Z,12.20
2023-04-07T19:38:44.888Z,12.90
2023-04-07T19:42:45.050Z,13.20
2023-04-07T19:46:42.873Z,13.10
2023-04-07T19:50:47.919Z,11.80
2023-04-07T19:54:45.948Z,15.00
2023-04-07T19:58:44.950Z,12.00
2023-04-07T20:02:43.007Z,13.10
2023-04-07T20:06:42.864Z,12.90
2023-04-07T20:10:40.936Z,12.00
2023-04-07T20:14:38.859Z,11.50
2023-04-07T20:18:37.835Z,12.10
2023-04-07T20:22:35.863Z,11.10
2023-04-07T20:26:33.827Z,10.20
2023-04-07T20:30:31.889Z,9.60
2023-04-07T20:34:29.845Z,10.60
2023-04-07T20:38:27.976Z,11.50
2023-04-07T20:42:25.901Z,10.60
2023-04-07T20:46:23.913Z,11.20
2023-04-07T20:50:21.851Z,11.90
2023-04-07T20:54:19.969Z,12.10
2023-04-07T20:58:17.833Z,12.40
2023-04-07T21:02:16.238Z,12.90
2023-04-07T21:06:13.734Z,12.90
2023-04-07T21:10:11.890Z,11.70
2023-04-07T21:14:09.831Z,11.10
2023-04-07T21:18:07.981Z,11.40
2023-04-07T21:22:05.770Z,12.10
2023-04-07T21:26:03.761Z,11.80
2023-04-07T21:30:01.848Z,11.10
2023-04-07T21:33:59.818Z,11.60
2023-04-07T21:37:57.745Z,12.90
2023-04-07T21:41:55.778Z,13.30
2023-04-07T21:45:53.719Z,13.80
2023-04-07T21:49:53.037Z,13.80
2023-04-07T21:53:50.847Z,13.60
2023-04-07T21:57:49.797Z,13.50
2023-04-07T22:01:47.816Z,14.20
2023-04-07T22:05:45.815Z,15.80
2023-04-07T22:09:43.781Z,14.90
2023-04-07T22:13:41.693Z,14.70
2023-04-07T22:17:39.807Z,13.50
2023-04-07T22:21:37.719Z,15.60
2023-04-07T22:25:35.670Z,15.80
2023-04-07T22:29:33.789Z,14.80
2023-04-07T22:33:31.769Z,15.20
2023-04-07T22:37:29.692Z,15.90
2023-04-07T22:41:27.627Z,14.80
2023-04-07T22:45:25.660Z,15.70
2023-04-07T22:49:23.673Z,16.80
2023-04-07T22:53:21.684Z,16.20
2023-04-07T22:57:19.618Z,16.10
2023-04-07T23:01:17.757Z,15.70
2023-04-07T23:05:16.709Z,16.60
2023-04-07T23:09:14.693Z,17.10
2023-04-07T23:13:15.059Z,16.70
2023-04-07T23:17:12.602Z,17.20
2023-04-07T23:21:10.570Z,19.70
2023-04-07T23:25:08.580Z,18.40
2023-04-07T23:29:06.636Z,18.90
2023-04-07T23:33:04.751Z,19.10
2023-04-07T23:37:02.597Z,19.70
2023-04-07T23:41:00.571Z,19.50
2023-04-07T23:44:59.688Z,19.00
2023-04-07T23:48:57.653Z,19.80
2023-04-07T23:52:55.630Z,22.90
2023-04-07T23:56:53.616Z,22.90
